Flight Track Log - Related Links

Times and Time Zones

All times are in EDT time to prevent confusion due to time zone crossing. See the UAL906 flight status page for this flight to view local times or setup timezone preferences in your user account.

Time Position Orientation Groundspeed Altitude Reporting Facility
EDT Latitude Longitude Course Direction KTS MPH feet Rate Location/Type
Mon 06:52:05 PM 41.9790 -87.9150 320° Northwest 28 32  Level FlightAware ADS-B
Mon 06:52:36 PM 41.9810 -87.9160 340° North 34 39 89 Level FlightAware ADS-B
Mon 06:52:48 PM 41.9810 -87.9170 270° West 16 18 92 Level FlightAware ADS-B
Mon 06:53:16 PM 41.9830 -87.9170 360° North 30 35 93 Level FlightAware ADS-B
Mon 06:53:47 PM 41.9830 -87.9200 270° West 34 39 96 Level FlightAware ADS-B
Mon 06:53:57 PM 41.9830 -87.9210 270° West 30 35 99 Level FlightAware ADS-B
Mon 06:54:27 PM 41.9840 -87.9220 323° Northwest 32 37 100 Level FlightAware ADS-B
Mon 06:55:51 PM 41.9870 -87.9190 37° Northeast 18 21 103 Level FlightAware ADS-B
Mon 06:56:17 PM 41.9870 -87.9150 90° East 22 25 115 Level FlightAware ADS-B
Mon 06:56:33 PM 41.9870 -87.9140 90° East 33 38 118 Level FlightAware ADS-B
Mon 06:57:04 PM 41.9890 -87.9130 20° North 20 23 121 Level FlightAware ADS-B
Mon 06:57:16 PM 41.9900 -87.9130 360° North 22 25 126 Level FlightAware ADS-B
Mon 06:57:43 PM 41.9930 -87.9100 37° Northeast 19 22 128 Level FlightAware ADS-B
Mon 06:58:05 PM 41.9930 -87.9090 90° East 16 18 134 Level FlightAware ADS-B
Mon 07:00:00 PM 42.0757 -87.6281 48° Northeast  Level FlightAware Approximate
Mon 07:00:45 PM 41.9940 -87.9090 48° Northeast 2 2  Level FlightAware ADS-B
Mon 07:01:13 PM 41.9940 -87.9080 90° East 16 18 183 Level FlightAware ADS-B
Mon 07:01:41 PM 41.9950 -87.9070 37° Northeast 26 30 194 Level FlightAware ADS-B
Mon 07:02:05 PM 41.9960 -87.9080 323° Northwest 16 18 206 Level FlightAware ADS-B
Mon 07:02:30 PM 41.9970 -87.9100 304° West 20 23 218 Level FlightAware ADS-B
Mon 07:03:03 PM 42.0000 -87.9120 334° Northwest 34 39 233 Level FlightAware ADS-B
Mon 07:03:34 PM 42.0010 -87.9130 323° Northwest 19 22 254 Level FlightAware ADS-B
Mon 07:06:00 PM 42.0913 -87.5635 62° Northeast  Level FlightAware Approximate
Mon 07:06:05 PM 42.0020 -87.9140 62° Northeast 17 20  Level FlightAware ADS-B
Mon 07:07:45 PM 42.0030 -87.9120 56° Northeast 21 24 523 Level FlightAware ADS-B
Mon 07:08:02 PM 42.0020 -87.9110 143° Southeast 36 41 1,250 Level FlightAware ADS-B
Mon 07:08:26 PM 41.9940 -87.9020 140° Southeast 145 167 1,636 Level FlightAware ADS-B
Mon 07:08:57 PM 41.9760 -87.8820 140° Southeast 162 186 1,500 2,512 Climbing FlightAware ADS-B
Mon 07:09:09 PM 41.9710 -87.8710 121° Southeast 176 203 1,800 1,500 Climbing FlightAware ADS-B
Mon 07:09:37 PM 41.9690 -87.8380 95° East 207 238 2,500 1,615 Climbing FlightAware ADS-B
Mon 07:10:01 PM 41.9670 -87.8050 95° East 231 266 3,200 2,036 Climbing FlightAware ADS-B
Mon 07:10:33 PM 41.9780 -87.7580 73° East 259 298 4,400 2,421 Climbing FlightAware ADS-B
Mon 07:10:58 PM 41.9920 -87.7230 62° Northeast 268 308 5,500 3,111 Climbing FlightAware ADS-B
Mon 07:11:27 PM 42.0110 -87.6800 59° Northeast 265 305 7,200 3,153 Climbing FlightAware ADS-B
Mon 07:11:57 PM 42.0300 -87.6370 59° Northeast 273 314 8,600 2,542 Climbing FlightAware ADS-B
Mon 07:12:26 PM 42.0490 -87.5960 58° Northeast 287 330 9,700 2,400 Climbing FlightAware ADS-B
Mon 07:13:02 PM 42.0750 -87.5380 59° Northeast 299 344 11,200 2,400 Climbing FlightAware ADS-B
Mon 07:13:51 PM 42.1100 -87.4560 60° Northeast 317 365 13,100 1,953 Climbing FlightAware ADS-B
Mon 07:14:28 PM 42.1380 -87.3950 58° Northeast 344 396 14,000 1,291 Climbing FlightAware ADS-B
Mon 07:15:10 PM 42.1720 -87.3110 61° Northeast 385 443 14,800 1,317 Climbing FlightAware ADS-B
Mon 07:15:50 PM 42.2090 -87.2250 60° Northeast 413 475 15,800 2,045 Climbing FlightAware ADS-B
Mon 07:16:38 PM 42.2590 -87.1110 59° Northeast 425 489 17,800 2,114 Climbing FlightAware ADS-B
Mon 07:17:18 PM 42.2840 -87.0090 72° East 453 521 18,900 1,756 Climbing FlightAware ADS-B
Mon 07:18:00 PM 42.2900 -86.8910 86° East 463 533 20,200 1,953 Climbing FlightAware ADS-B
Mon 07:18:44 PM 42.2940 -86.7610 88° East 471 542 21,700 1,902 Climbing FlightAware ADS-B
Mon 07:19:22 PM 42.2980 -86.6480 87° East 477 549 22,800 1,500 Climbing FlightAware ADS-B
Mon 07:20:08 PM 42.3030 -86.5150 87° East 491 565 23,800 1,500 Climbing FlightAware ADS-B
Mon 07:20:50 PM 42.3080 -86.3830 87° East 497 572 25,000 1,683 Climbing FlightAware ADS-B
Mon 07:21:30 PM 42.3120 -86.2610 87° East 499 574 26,100 1,756 Climbing FlightAware ADS-B
Mon 07:22:12 PM 42.3160 -86.1410 87° East 495 570 27,400 1,714 Climbing FlightAware ADS-B
Mon 07:23:08 PM 42.3180 -85.9500 89° East 501 577 28,900 1,011 Climbing FlightAware ADS-B
Mon 07:23:47 PM 42.3160 -85.8290 91° East 506 582 29,000 73 Climbing FlightAware ADS-B
Mon 07:24:30 PM 42.3140 -85.6920 91° East 503 579 29,000  Level FlightAware ADS-B
Mon 07:25:15 PM 42.3130 -85.5530 91° East 501 577 29,000  Level FlightAware ADS-B
Mon 07:25:56 PM 42.3110 -85.4240 91° East 500 575 29,000  Level FlightAware ADS-B
Mon 07:26:39 PM 42.3080 -85.2910 92° East 499 574 29,000  Level FlightAware ADS-B
Mon 07:27:23 PM 42.3060 -85.1540 91° East 498 573 29,000  Level FlightAware ADS-B
Mon 07:28:02 PM 42.3040 -85.0350 91° East 498 573 29,000  Level FlightAware ADS-B
Mon 07:28:44 PM 42.3010 -84.9070 92° East 498 573 29,000  Level FlightAware ADS-B
Mon 07:29:29 PM 42.2980 -84.7640 92° East 498 573 29,000  Level FlightAware ADS-B
Mon 07:30:09 PM 42.2950 -84.6390 92° East 499 574 29,000  Level FlightAware ADS-B
Mon 07:30:53 PM 42.3010 -84.5040 87° East 496 571 29,000  Level FlightAware ADS-B
Mon 07:31:32 PM 42.3120 -84.3820 83° East 497 572 29,000  Level FlightAware ADS-B
Mon 07:32:17 PM 42.3250 -84.2450 83° East 500 575 29,000  Level FlightAware ADS-B
Mon 07:32:58 PM 42.3370 -84.1180 83° East 502 578 29,000  Level FlightAware ADS-B
Mon 07:33:36 PM 42.3460 -84.0160 83° East 503 579 29,000  Level FlightAware ADS-B
Mon 07:34:23 PM 42.3600 -83.8780 82° East 504 580 29,000  Level FlightAware ADS-B
Mon 07:35:02 PM 42.3710 -83.7550 83° East 505 581 29,000  Level FlightAware ADS-B
Mon 07:35:44 PM 42.3850 -83.6100 83° East 506 582 29,000  Level FlightAware ADS-B
Mon 07:36:21 PM 42.3940 -83.5030 83° East 507 583 29,000  Level FlightAware ADS-B
Mon 07:37:05 PM 42.4070 -83.3580 83° East 507 583 29,000  Level FlightAware ADS-B
Mon 07:37:50 PM 42.4190 -83.2250 83° East 507 583 29,000  Level FlightAware ADS-B
Mon 07:38:33 PM 42.4310 -83.0920 83° East 508 585 29,000  Level FlightAware ADS-B
Mon 07:39:08 PM 42.4410 -82.9760 83° East 507 583 29,000  Level FlightAware ADS-B
Mon 07:39:59 PM 42.4550 -82.8160 83° East 508 585 29,000  Level FlightAware ADS-B
Mon 07:40:38 PM 42.4650 -82.6950 84° East 510 587 29,000  Level FlightAware ADS-B
Mon 07:41:17 PM 42.4750 -82.5760 83° East 511 588 29,000  Level FlightAware ADS-B
Mon 07:42:00 PM 42.4870 -82.4230 84° East 514 592 29,000  Level FlightAware ADS-B
Mon 07:42:58 PM 42.5010 -82.2460 84° East 517 595 29,000  Level FlightAware ADS-B
Mon 07:43:36 PM 42.5110 -82.1240 84° East 522 601 29,000  Level FlightAware ADS-B
Mon 07:44:21 PM 42.5220 -81.9830 84° East 524 603 29,000  Level FlightAware ADS-B
Mon 07:45:00 PM 42.5320 -81.8490 84° East 524 603 29,000  Level FlightAware ADS-B
Mon 07:45:47 PM 42.5440 -81.6970 84° East 523 602 29,000  Level FlightAware ADS-B
Mon 07:46:25 PM 42.5530 -81.5760 84° East 524 603 29,000  Level FlightAware ADS-B
Mon 07:47:06 PM 42.5620 -81.4490 84° East 527 606 29,000  Level FlightAware ADS-B
Mon 07:47:51 PM 42.5730 -81.2880 85° East 529 609 29,000  Level FlightAware ADS-B
Mon 07:48:34 PM 42.5830 -81.1510 84° East 529 609 29,000  Level FlightAware ADS-B
Mon 07:49:32 PM 42.5980 -80.9340 85° East 529 609 29,000  Level FlightAware ADS-B
Mon 07:50:09 PM 42.6050 -80.8180 85° East 528 608 29,000  Level FlightAware ADS-B
Mon 07:50:53 PM 42.6150 -80.6710 85° East 525 604 29,000  Level FlightAware ADS-B
Mon 07:51:38 PM 42.6250 -80.5210 85° East 519 597 29,000  Level FlightAware ADS-B
Mon 07:52:18 PM 42.6330 -80.3910 85° East 515 593 29,000  Level FlightAware ADS-B
Mon 07:53:02 PM 42.6410 -80.2550 85° East 510 587 29,000  Level FlightAware ADS-B
Mon 07:53:42 PM 42.6490 -80.1250 85° East 507 583 29,000  Level FlightAware ADS-B
Mon 07:54:22 PM 42.6570 -79.9980 85° East 503 579 29,000  Level FlightAware ADS-B
Mon 07:55:08 PM 42.6650 -79.8550 86° East 498 573 29,000  Level FlightAware ADS-B
Mon 07:55:48 PM 42.6720 -79.7300 86° East 495 570 29,000  Level FlightAware ADS-B
Mon 07:56:34 PM 42.6820 -79.5870 85° East 494 568 29,000  Level FlightAware ADS-B
Mon 07:57:10 PM 42.6890 -79.4810 85° East 494 568 29,000  Level FlightAware ADS-B
Mon 07:57:55 PM 42.7000 -79.3440 84° East 495 570 29,000  Level FlightAware ADS-B
Mon 07:58:35 PM 42.7110 -79.2160 83° East 496 571 29,000  Level FlightAware ADS-B
Mon 07:59:15 PM 42.7220 -79.1010 83° East 498 573 29,000  Level FlightAware ADS-B
Mon 08:00:00 PM 42.7350 -78.9590 83° East 499 574 29,000  Level FlightAware ADS-B
Mon 08:00:40 PM 42.7470 -78.8390 82° East 497 572 29,000  Level FlightAware ADS-B
Mon 08:01:24 PM 42.7600 -78.7100 82° East 497 572 29,000  Level FlightAware ADS-B
Mon 08:02:00 PM 42.7730 -78.5900 82° East 498 573 29,000  Level FlightAware ADS-B
Mon 08:02:45 PM 42.7880 -78.4440 82° East 497 572 29,000  Level FlightAware ADS-B
Mon 08:03:30 PM 42.8030 -78.3060 82° East 497 572 29,000  Level FlightAware ADS-B
Mon 08:04:15 PM 42.8250 -78.1710 77° East 496 571 29,000  Level FlightAware ADS-B
Mon 08:04:55 PM 42.8650 -78.0600 64° Northeast 495 570 29,000  Level FlightAware ADS-B
Mon 08:05:40 PM 42.9170 -77.9380 60° Northeast 496 571 29,000  Level FlightAware ADS-B
Mon 08:06:20 PM 42.9630 -77.8290 60° Northeast 495 570 29,000  Level FlightAware ADS-B
Mon 08:07:02 PM 43.0090 -77.7210 60° Northeast 496 571 29,000  Level FlightAware ADS-B
Mon 08:07:45 PM 43.0600 -77.6010 60° Northeast 494 568 29,000  Level FlightAware ADS-B
Mon 08:08:25 PM 43.1060 -77.4930 60° Northeast 495 570 29,000  Level FlightAware ADS-B
Mon 08:09:05 PM 43.1520 -77.3840 60° Northeast 495 570 29,000  Level FlightAware ADS-B
Mon 08:09:50 PM 43.2040 -77.2620 60° Northeast 495 570 29,000  Level FlightAware ADS-B
Mon 08:10:30 PM 43.2490 -77.1550 60° Northeast 494 568 29,000  Level FlightAware ADS-B
Mon 08:11:30 PM 43.3170 -76.9940 60° Northeast 494 568 29,000  Level FlightAware ADS-B
Mon 08:12:18 PM 43.3700 -76.8670 60° Northeast 492 566 29,000  Level FlightAware ADS-B
Mon 08:12:55 PM 43.4150 -76.7590 60° Northeast 493 567 29,000  Level FlightAware ADS-B
Mon 08:13:35 PM 43.4600 -76.6490 61° Northeast 494 568 29,000 141 Level FlightAware ADS-B
Mon 08:14:20 PM 43.5100 -76.5270 60° Northeast 493 567 29,200 467 Climbing FlightAware ADS-B
Mon 08:15:05 PM 43.5610 -76.4030 60° Northeast 502 578 29,700 706 Climbing FlightAware ADS-B
Mon 08:15:45 PM 43.6070 -76.2900 61° Northeast 514 592 30,200 815 Climbing FlightAware ADS-B
Mon 08:16:26 PM 43.6500 -76.1850 60° Northeast 524 603 30,800 847 Climbing FlightAware ADS-B
Mon 08:17:10 PM 43.7080 -76.0430 60° Northeast 539 620 31,400 1,000 Climbing FlightAware ADS-B
Mon 08:17:50 PM 43.7560 -75.9220 61° Northeast 542 624 32,200 1,129 Climbing FlightAware ADS-B
Mon 08:18:35 PM 43.8090 -75.7910 61° Northeast 546 628 33,000 558 Climbing FlightAware ADS-B
Mon 08:19:16 PM 43.8590 -75.6670 61° Northeast 547 629 33,000  Level FlightAware ADS-B
Mon 08:20:00 PM 43.9160 -75.5240 61° Northeast 542 624 33,000  Level FlightAware ADS-B
Mon 08:20:36 PM 43.9610 -75.4080 62° Northeast 543 625 33,000  Level FlightAware ADS-B
Mon 08:21:21 PM 44.0140 -75.2750 61° Northeast 545 627 33,000  Level FlightAware ADS-B
Mon 08:22:04 PM 44.0640 -75.1470 61° Northeast 543 625 33,000  Level FlightAware ADS-B
Mon 08:22:40 PM 44.1040 -75.0440 62° Northeast 543 625 33,000  Level FlightAware ADS-B
Mon 08:23:30 PM 44.1670 -74.8840 61° Northeast 543 625 33,000  Level FlightAware ADS-B
Mon 08:24:11 PM 44.2190 -74.7490 62° Northeast 542 624 33,000  Level FlightAware ADS-B
Mon 08:24:51 PM 44.2670 -74.6230 62° Northeast 542 624 33,000  Level FlightAware ADS-B
Mon 08:25:35 PM 44.3190 -74.4890 61° Northeast 542 624 33,000  Level FlightAware ADS-B
Mon 08:26:15 PM 44.3660 -74.3660 62° Northeast 543 625 33,000  Level FlightAware ADS-B
Mon 08:27:01 PM 44.4200 -74.2230 62° Northeast 543 625 33,000  Level FlightAware ADS-B
Mon 08:27:41 PM 44.4670 -74.1000 62° Northeast 544 626 33,000  Level FlightAware ADS-B
Mon 08:28:23 PM 44.5160 -73.9680 62° Northeast 544 626 33,000  Level FlightAware ADS-B
Mon 08:29:05 PM 44.5650 -73.8370 62° Northeast 544 626 33,000  Level FlightAware ADS-B
Mon 08:29:47 PM 44.6140 -73.7060 62° Northeast 544 626 33,000  Level FlightAware ADS-B
Mon 08:30:30 PM 44.6640 -73.5730 62° Northeast 543 625 33,000  Level FlightAware ADS-B
Mon 08:31:10 PM 44.7100 -73.4470 63° Northeast 544 626 33,000  Level FlightAware ADS-B
Mon 08:31:54 PM 44.7620 -73.3090 62° Northeast 546 628 33,000  Level FlightAware ADS-B
Mon 08:32:34 PM 44.8100 -73.1810 62° Northeast 545 627 33,000  Level FlightAware ADS-B
Mon 08:33:16 PM 44.8580 -73.0520 62° Northeast 544 626 33,000  Level FlightAware ADS-B
Mon 08:34:02 PM 44.9120 -72.9050 63° Northeast 546 628 33,000  Level FlightAware ADS-B
Mon 08:34:42 PM 44.9570 -72.7820 63° Northeast 545 627 33,000  Level FlightAware ADS-B
Mon 08:35:22 PM 45.0030 -72.6520 63° Northeast 547 629 33,000  Level FlightAware ADS-B
Mon 08:36:08 PM 45.0570 -72.5060 62° Northeast 545 627 33,000  Level FlightAware ADS-B
Mon 08:36:47 PM 45.1000 -72.3870 63° Northeast 545 627 33,000  Level FlightAware ADS-B
Mon 08:37:28 PM 45.1480 -72.2540 63° Northeast 547 629 33,000  Level FlightAware ADS-B
Mon 08:38:11 PM 45.1970 -72.1190 63° Northeast 544 626 33,000  Level FlightAware ADS-B
Mon 08:38:46 PM 45.2360 -72.0100 63° Northeast 544 626 33,000  Level FlightAware ADS-B
Mon 08:39:38 PM 45.2960 -71.8410 63° Northeast 546 628 33,000  Level FlightAware ADS-B
Mon 08:40:13 PM 45.3360 -71.7270 63° Northeast 546 628 33,000  Level FlightAware ADS-B
Mon 08:40:58 PM 45.3870 -71.5830 63° Northeast 547 629 33,000  Level FlightAware ADS-B
Mon 08:41:38 PM 45.4320 -71.4550 63° Northeast 546 628 33,000  Level FlightAware ADS-B
Mon 08:42:23 PM 45.4830 -71.3120 63° Northeast 544 626 33,000  Level FlightAware ADS-B
Mon 08:43:03 PM 45.5270 -71.1840 64° Northeast 545 627 33,000  Level FlightAware ADS-B
Mon 08:43:48 PM 45.5780 -71.0380 63° Northeast 545 627 33,000  Level FlightAware ADS-B
Mon 08:44:28 PM 45.6220 -70.9110 64° Northeast 543 625 33,000  Level FlightAware ADS-B
Mon 08:45:13 PM 45.6720 -70.7670 64° Northeast 541 623 33,000  Level FlightAware ADS-B
Mon 08:45:48 PM 45.7110 -70.6550 63° Northeast 540 621 33,000  Level FlightAware ADS-B
Mon 08:46:33 PM 45.7600 -70.5110 64° Northeast 540 621 33,000  Level FlightAware ADS-B
Mon 08:47:13 PM 45.8040 -70.3840 64° Northeast 538 619 33,000  Level FlightAware ADS-B
Mon 08:47:58 PM 45.8530 -70.2400 64° Northeast 536 617 33,000  Level FlightAware ADS-B
Mon 08:48:38 PM 45.8960 -70.1120 64° Northeast 535 616 33,000  Level FlightAware ADS-B
Mon 08:49:23 PM 45.9440 -69.9690 64° Northeast 535 616 33,000  Level FlightAware ADS-B
Mon 08:50:03 PM 45.9860 -69.8420 65° Northeast 531 611 33,000  Level FlightAware ADS-B
Mon 08:50:48 PM 46.0340 -69.6980 64° Northeast 532 612 33,000  Level FlightAware ADS-B
Mon 08:51:23 PM 46.0700 -69.5880 65° Northeast 530 610 33,000  Level FlightAware ADS-B
Mon 08:51:53 PM 46.1020 -69.4910 65° Northeast 532 612 33,000  Level FlightAware ADS-B
Mon 08:52:39 PM 46.1490 -69.3480 65° Northeast 531 611 33,000  Level FlightAware ADS-B
Mon 08:53:23 PM 46.1960 -69.2030 65° Northeast 534 615 33,000  Level FlightAware ADS-B
Mon 08:54:03 PM 46.2370 -69.0760 65° Northeast 534 615 33,000  Level FlightAware ADS-B
Mon 08:54:48 PM 46.2830 -68.9330 65° Northeast 535 616 33,000  Level FlightAware ADS-B
Mon 08:55:28 PM 46.3250 -68.8010 65° Northeast 535 616 33,000  Level FlightAware ADS-B
Mon 08:56:08 PM 46.3660 -68.6730 65° Northeast 533 613 33,000  Level FlightAware ADS-B
Mon 08:56:59 PM 46.4150 -68.5160 66° East 534 615 33,000  Level FlightAware ADS-B
Mon 08:57:50 PM 46.4660 -68.3550 65° Northeast 533 613 33,000  Level FlightAware ADS-B
Mon 08:58:31 PM 46.5080 -68.2230 65° Northeast 533 613 33,000  Level FlightAware ADS-B
Mon 08:59:07 PM 46.5400 -68.1230 65° Northeast 533 613 33,000  Level FlightAware ADS-B
Mon 09:00:00 PM 46.5870 -67.9770 65° Northeast 533 613 33,000  Level FlightAware ADS-B
Mon 09:00:46 PM 46.6270 -67.8490 65° Northeast 533 613 33,000  Level FlightAware ADS-B
Mon 09:01:34 PM 46.6700 -67.7170 65° Northeast 533 613 33,000  Level FlightAware ADS-B
Mon 09:02:12 PM 46.7030 -67.6110 66° East 533 613 33,000  Level FlightAware ADS-B
Mon 09:02:48 PM 46.7350 -67.5120 65° Northeast 533 613 33,000  Level FlightAware ADS-B
Mon 09:03:37 PM 46.7790 -67.3760 65° Northeast 533 613 33,000  Level FlightAware ADS-B
Mon 09:04:13 PM 46.8110 -67.2760 65° Northeast 533 613 33,000  Level FlightAware ADS-B
Mon 09:05:02 PM 46.8540 -67.1400 65° Northeast 533 613 33,000  Level FlightAware ADS-B
Mon 09:05:36 PM 46.8840 -67.0450 65° Northeast 533 613 33,000  Level FlightAware ADS-B
Mon 09:06:24 PM 46.9270 -66.9120 65° Northeast 533 613 33,000  Level FlightAware ADS-B
Mon 09:07:00 PM 46.9580 -66.8120 66° East 533 613 33,000  Level FlightAware ADS-B
Mon 09:07:48 PM 47.0010 -66.6780 65° Northeast 533 613 33,000  Level FlightAware ADS-B
Mon 09:08:36 PM 47.1667 -66.3000 65° Northeast 520 598 33,000  Level Gander Center
Mon 09:09:10 PM 47.2000 -66.2000 64° Northeast 520 598 33,000  Level Gander Center
Mon 09:09:47 PM 47.2500 -66.0667 61° Northeast 520 598 33,000  Level Moncton Center
Mon 09:10:47 PM 47.3167 -65.9000 59° Northeast 510 587 33,000  Level Moncton Center
Mon 09:11:47 PM 47.3833 -65.7000 64° Northeast 510 587 33,000  Level Moncton Center
Mon 09:12:47 PM 47.4667 -65.5333 53° Northeast 510 587 33,000  Level Moncton Center
Mon 09:13:47 PM 47.5333 -65.3333 64° Northeast 510 587 33,000  Level Moncton Center
Mon 09:14:47 PM 47.6000 -65.1667 59° Northeast 500 575 33,000  Level Moncton Center
Mon 09:15:47 PM 47.6667 -64.9667 64° Northeast 500 575 33,000  Level Moncton Center
Mon 09:16:10 PM 47.6833 -64.9333 53° Northeast 500 575 33,000  Level Gander Center
Mon 09:16:47 PM 47.7333 -64.8000 61° Northeast 510 587 33,000  Level Moncton Center
Mon 09:17:47 PM 47.8000 -64.6167 62° Northeast 510 587 33,000  Level Moncton Center
Mon 09:18:47 PM 47.8667 -64.4167 64° Northeast 500 575 33,000  Level Moncton Center
Mon 09:19:47 PM 47.9333 -64.2500 59° Northeast 510 587 33,000  Level Moncton Center
Mon 09:20:47 PM 48.0000 -64.0667 61° Northeast 510 587 33,000  Level Moncton Center
Mon 09:21:10 PM 48.0333 -63.9833 59° Northeast 510 587 33,000  Level Gander Center
Mon 09:21:47 PM 48.0667 -63.8667 67° East 510 587 33,000  Level Moncton Center
Mon 09:22:47 PM 48.1333 -63.7000 59° Northeast 510 587 33,000  Level Moncton Center
Mon 09:23:47 PM 48.2000 -63.5000 63° Northeast 510 587 33,000  Level Moncton Center
Mon 09:24:47 PM 48.2833 -63.3167 56° Northeast 510 587 33,000 250 Level Moncton Center
Mon 09:25:47 PM 48.3500 -63.1167 63° Northeast 510 587 33,500 651 Climbing Moncton Center
Mon 09:26:10 PM 48.3667 -63.0667 63° Northeast 510 587 33,900 1,100 Climbing Gander Center
Mon 09:26:47 PM 48.4000 -62.9333 69° East 510 587 34,600 1,100 Climbing Moncton Center
Mon 09:27:10 PM 48.4333 -62.8667 53° Northeast 510 587 35,000 289 Climbing Gander Center
Mon 09:28:10 PM 48.4833 -62.6667 69° East 520 598 35,000  Level Gander Center
Mon 09:28:47 PM 48.5333 -62.5500 57° Northeast 520 598 35,000  Level Moncton Center
Mon 09:29:47 PM 48.6000 -62.3500 63° Northeast 500 575 35,000  Level Moncton Center
Mon 09:30:10 PM 48.6333 -62.3000 45° Northeast 510 587 35,000  Level Gander Center
Mon 09:31:10 PM 48.7000 -62.1000 63° Northeast 510 587 35,000  Level Gander Center
Mon 09:31:47 PM 48.7333 -61.9833 67° East 510 587 35,000  Level Moncton Center
Mon 09:32:47 PM 48.8000 -61.7833 63° Northeast 510 587 35,000  Level Moncton Center
Mon 09:33:10 PM 48.8167 -61.7167 69° East 510 587 35,000  Level Gander Center
Mon 09:33:47 PM 48.8500 -61.6000 66° East 510 587 35,000  Level Moncton Center
Mon 09:34:10 PM 48.8833 -61.5167 59° Northeast 510 587 35,000  Level Gander Center
Mon 09:35:10 PM 48.9500 -61.3333 61° Northeast 510 587 35,000  Level Gander Center
Mon 09:35:47 PM 48.9833 -61.2000 69° East 510 587 35,000  Level Moncton Center
Mon 09:36:47 PM 49.0333 -61.0333 65° Northeast 510 587 35,000  Level Moncton Center
Mon 09:37:47 PM 49.1000 -60.8167 65° Northeast 510 587 35,000  Level Moncton Center
Mon 09:43:04 PM 49.4360 -59.8110 65° Northeast 512 589 35,000  Level FlightAware ADS-B
Mon 09:43:56 PM 49.4820 -59.6640 64° Northeast 513 590 35,000  Level FlightAware ADS-B
Mon 09:44:44 PM 49.5380 -59.4800 65° Northeast 512 589 35,000  Level FlightAware ADS-B
Mon 09:45:35 PM 49.5880 -59.3160 65° Northeast 512 589 35,000  Level FlightAware ADS-B
Mon 09:46:19 PM 49.6290 -59.1780 65° Northeast 511 588 35,000  Level FlightAware ADS-B
Mon 09:46:59 PM 49.6720 -59.0340 65° Northeast 512 589 35,000  Level FlightAware ADS-B
Mon 09:47:39 PM 49.7100 -58.9130 64° Northeast 512 589 35,000  Level FlightAware ADS-B
Mon 09:48:39 PM 49.7670 -58.7320 64° Northeast 511 588 35,000  Level FlightAware ADS-B
Mon 09:49:14 PM 49.8080 -58.5990 64° Northeast 511 588 35,000  Level FlightAware ADS-B
Mon 09:50:04 PM 49.8610 -58.4240 65° Northeast 511 588 35,000  Level FlightAware ADS-B
Mon 09:50:44 PM 49.9000 -58.2980 64° Northeast 511 588 35,000  Level FlightAware ADS-B
Mon 09:51:29 PM 49.9460 -58.1430 65° Northeast 510 587 35,000  Level FlightAware ADS-B
Mon 09:52:09 PM 49.9860 -58.0120 65° Northeast 510 587 35,000  Level FlightAware ADS-B
Mon 09:52:49 PM 50.0240 -57.8820 65° Northeast 509 586 35,000  Level FlightAware ADS-B
Mon 09:53:34 PM 50.0690 -57.7320 65° Northeast 509 586 35,000  Level FlightAware ADS-B
Mon 09:54:14 PM 50.1090 -57.5970 65° Northeast 509 586 35,000  Level FlightAware ADS-B
Mon 09:54:54 PM 50.1480 -57.4630 66° East 509 586 35,000  Level FlightAware ADS-B
Mon 09:55:39 PM 50.1910 -57.3150 66° East 509 586 35,000  Level FlightAware ADS-B
Mon 09:56:19 PM 50.2310 -57.1780 65° Northeast 510 587 35,000  Level FlightAware ADS-B
Mon 09:56:59 PM 50.2700 -57.0450 65° Northeast 510 587 35,000  Level FlightAware ADS-B
Mon 09:57:44 PM 50.3120 -56.8970 66° East 510 587 35,000  Level FlightAware ADS-B
Mon 09:58:29 PM 50.3510 -56.7600 66° East 512 589 35,000  Level FlightAware ADS-B
Mon 09:59:09 PM 50.3940 -56.6080 66° East 512 589 35,000  Level FlightAware ADS-B
Mon 09:59:49 PM 50.4320 -56.4710 66° East 513 590 35,000  Level FlightAware ADS-B
Mon 10:00:34 PM 50.4750 -56.3170 66° East 513 590 35,000  Level FlightAware ADS-B
Mon 10:01:16 PM 50.5130 -56.1810 66° East 513 590 35,000  Level FlightAware ADS-B
Mon 10:01:54 PM 50.5500 -56.0450 67° East 513 590 35,000  Level FlightAware ADS-B
Mon 10:02:39 PM 50.5930 -55.8910 66° East 514 592 35,000  Level FlightAware ADS-B
Mon 10:03:24 PM 50.6340 -55.7380 67° East 517 595 35,000  Level FlightAware ADS-B
Mon 10:04:04 PM 50.6700 -55.6050 67° East 518 596 35,000  Level FlightAware ADS-B
Mon 10:04:44 PM 50.7100 -55.4590 67° East 518 596 35,000  Level FlightAware ADS-B
Mon 10:05:29 PM 50.7510 -55.3030 67° East 521 600 35,000  Level FlightAware ADS-B
Mon 10:06:09 PM 50.7890 -55.1620 67° East 522 601 35,000  Level FlightAware ADS-B
Mon 10:06:49 PM 50.8260 -55.0200 68° East 522 601 35,000  Level FlightAware ADS-B
Mon 10:07:34 PM 50.8660 -54.8650 68° East 523 602 35,000  Level FlightAware ADS-B
Mon 10:08:29 PM 50.9180 -54.6660 67° East 524 603 35,000  Level FlightAware ADS-B
Mon 10:09:19 PM 50.9580 -54.5110 68° East 523 602 35,000  Level FlightAware ADS-B
Mon 10:10:07 PM 50.9990 -54.3470 68° East 523 602 35,000  Level FlightAware ADS-B
Mon 10:10:59 PM 51.0520 -54.1380 68° East 521 600 35,000  Level FlightAware ADS-B
Mon 10:11:48 PM 51.0900 -53.9900 68° East 521 600 35,000  Level FlightAware ADS-B
Mon 10:12:26 PM 51.1280 -53.8370 68° East 35,000  Level FlightAware ADS-B
Mon 10:12:47 PM 51.1333 -53.6833 68° East 510 587 35,000  Level Moncton Center
Mon 10:13:10 PM 51.1500 -53.6000 72° East 520 598 35,000  Level Gander Center
Mon 10:13:47 PM 51.1833 -53.4833 65° Northeast 520 598 35,000  Level Moncton Center
Mon 10:14:36 PM 51.2333 -53.2833 68° East 520 598 35,000  Level Gander Center
Mon 10:15:36 PM 51.2833 -53.0833 68° East 520 598 35,000  Level Gander Center
Mon 10:16:10 PM 51.3167 -52.9833 62° Northeast 510 587 35,000  Level Gander Center
Mon 10:16:36 PM 51.3333 -52.8667 77° East 520 598 35,000  Level Gander Center
Mon 10:17:36 PM 51.3833 -52.6667 68° East 520 598 35,000  Level Gander Center
Mon 10:18:10 PM 51.4167 -52.5333 68° East 520 598 35,000  Level Gander Center
Mon 10:19:10 PM 51.4667 -52.3333 68° East 510 587 35,000  Level Gander Center
Mon 10:20:10 PM 51.5167 -52.1000 71° East 520 598 35,000  Level Gander Center
Mon 10:21:36 PM 51.6000 -51.7833 67° East 520 598 35,000  Level Gander Center
Mon 10:22:36 PM 51.6500 -51.5833 68° East 520 598 35,000  Level Gander Center
Mon 10:23:10 PM 51.6667 -51.4500 79° East 520 598 35,000  Level Gander Center
Mon 10:24:10 PM 51.7167 -51.2500 68° East 520 598 35,000  Level Gander Center
Mon 10:25:10 PM 51.7667 -51.0167 71° East 530 610 35,000  Level Gander Center
Mon 10:26:10 PM 51.8167 -50.7833 71° East 520 598 35,000  Level Gander Center
Mon 10:27:10 PM 51.8500 -50.5667 76° East 520 598 35,000  Level Gander Center
Mon 10:28:10 PM 51.9167 -50.3500 63° Northeast 530 610 35,000  Level Gander Center
Mon 10:30:00 PM 52.0031 -49.9787 77° East  Level FlightAware Approximate
Mon 10:37:00 PM 52.2071 -48.5025 77° East  Level FlightAware Approximate
Mon 10:38:00 PM 52.2347 -48.2905 78° East  Level FlightAware Approximate
Mon 10:39:00 PM 52.2619 -48.0783 78° East  Level FlightAware Approximate
Mon 10:40:00 PM 52.2888 -47.8658 78° East  Level FlightAware Approximate
Mon 10:41:00 PM 52.3153 -47.6530 78° East  Level FlightAware Approximate
Mon 10:42:00 PM 52.3414 -47.4400 79° East  Level FlightAware Approximate
Mon 10:43:00 PM 52.3671 -47.2268 79° East  Level FlightAware Approximate
Mon 10:44:00 PM 52.3924 -47.0133 79° East  Level FlightAware Approximate
Mon 10:45:00 PM 52.4174 -46.7995 79° East  Level FlightAware Approximate
Mon 10:46:00 PM 52.4419 -46.5856 79° East  Level FlightAware Approximate
Mon 10:47:00 PM 52.4661 -46.3713 79° East  Level FlightAware Approximate
Mon 10:48:00 PM 52.4899 -46.1569 80° East  Level FlightAware Approximate
Mon 10:49:00 PM 52.5133 -45.9422 80° East  Level FlightAware Approximate
Mon 10:50:00 PM 52.5363 -45.7273 80° East  Level FlightAware Approximate
Mon 10:51:00 PM 52.5589 -45.5121 80° East  Level FlightAware Approximate
Mon 10:52:00 PM 52.5812 -45.2968 80° East  Level FlightAware Approximate
Mon 10:53:00 PM 52.6030 -45.0812 80° East  Level FlightAware Approximate
Mon 10:54:00 PM 52.6245 -44.8654 81° East  Level FlightAware Approximate
Mon 10:55:00 PM 52.6455 -44.6494 81° East  Level FlightAware Approximate
Mon 10:56:00 PM 52.6662 -44.4332 81° East  Level FlightAware Approximate
Mon 10:57:00 PM 52.6865 -44.2168 81° East  Level FlightAware Approximate
Mon 10:58:00 PM 52.7063 -44.0002 81° East  Level FlightAware Approximate
Mon 10:59:00 PM 52.7258 -43.7834 81° East  Level FlightAware Approximate
Mon 11:00:00 PM 52.7449 -43.5664 82° East  Level FlightAware Approximate
Mon 11:01:00 PM 52.7636 -43.3493 82° East  Level FlightAware Approximate
Mon 11:02:00 PM 52.7819 -43.1319 82° East  Level FlightAware Approximate
Mon 11:03:00 PM 52.7998 -42.9143 82° East  Level FlightAware Approximate
Mon 11:04:00 PM 52.8173 -42.6966 82° East  Level FlightAware Approximate
Mon 11:05:00 PM 52.8344 -42.4787 83° East  Level FlightAware Approximate
Mon 11:06:00 PM 52.8511 -42.2607 83° East  Level FlightAware Approximate
Mon 11:07:00 PM 52.8674 -42.0424 83° East  Level FlightAware Approximate
Mon 11:08:00 PM 52.8833 -41.8241 83° East  Level FlightAware Approximate
Mon 11:09:00 PM 52.8988 -41.6055 83° East  Level FlightAware Approximate
Mon 11:10:00 PM 52.9138 -41.3868 83° East  Level FlightAware Approximate
Mon 11:11:00 PM 52.9285 -41.1679 84° East  Level FlightAware Approximate
Mon 11:12:00 PM 52.9428 -40.9490 84° East  Level FlightAware Approximate
Mon 11:13:00 PM 52.9567 -40.7302 84° East  Level FlightAware Approximate
Mon 11:14:00 PM 52.9701 -40.5114 84° East  Level FlightAware Approximate
Mon 11:15:00 PM 52.9832 -40.2924 84° East  Level FlightAware Approximate
Mon 11:16:00 PM 52.9959 -40.0733 84° East  Level FlightAware Approximate
Mon 11:17:00 PM 53.0061 -39.8538 86° East  Level FlightAware Approximate
Mon 11:18:00 PM 53.0148 -39.6340 86° East  Level FlightAware Approximate
Mon 11:19:00 PM 53.0232 -39.4142 86° East  Level FlightAware Approximate
Mon 11:20:00 PM 53.0311 -39.1943 86° East  Level FlightAware Approximate
Mon 11:21:00 PM 53.0387 -38.9743 87° East  Level FlightAware Approximate
Mon 11:22:00 PM 53.0458 -38.7542 87° East  Level FlightAware Approximate
Mon 11:23:00 PM 53.0526 -38.5340 87° East  Level FlightAware Approximate
Mon 11:24:00 PM 53.0589 -38.3138 87° East  Level FlightAware Approximate
Mon 11:25:00 PM 53.0648 -38.0936 87° East  Level FlightAware Approximate
Mon 11:26:00 PM 53.0703 -37.8732 88° East  Level FlightAware Approximate
Mon 11:27:00 PM 53.0754 -37.6529 88° East  Level FlightAware Approximate
Mon 11:28:00 PM 53.0801 -37.4324 88° East  Level FlightAware Approximate
Mon 11:29:00 PM 53.0844 -37.2119 88° East  Level FlightAware Approximate
Mon 11:30:00 PM 53.0883 -36.9914 88° East  Level FlightAware Approximate
Mon 11:31:00 PM 53.0918 -36.7709 88° East  Level FlightAware Approximate
Mon 11:32:00 PM 53.0949 -36.5503 89° East  Level FlightAware Approximate
Mon 11:33:00 PM 53.0975 -36.3297 89° East  Level FlightAware Approximate
Mon 11:34:00 PM 53.0998 -36.1090 89° East  Level FlightAware Approximate
Mon 11:35:00 PM 53.1016 -35.8883 89° East  Level FlightAware Approximate
Mon 11:36:00 PM 53.1031 -35.6676 89° East  Level FlightAware Approximate
Mon 11:37:00 PM 53.1041 -35.4469 89° East  Level FlightAware Approximate
Mon 11:38:00 PM 53.1047 -35.2262 90° East  Level FlightAware Approximate
Mon 11:39:00 PM 53.1049 -35.0077 90° East  Level FlightAware Approximate
Mon 11:40:00 PM 53.1047 -34.7891 90° East  Level FlightAware Approximate
Mon 11:41:00 PM 53.1041 -34.5706 90° East  Level FlightAware Approximate
Mon 11:42:00 PM 53.1032 -34.3520 90° East  Level FlightAware Approximate
Mon 11:43:00 PM 53.1018 -34.1335 91° East  Level FlightAware Approximate
Mon 11:44:00 PM 53.1000 -33.9150 91° East  Level FlightAware Approximate
Mon 11:45:00 PM 53.0978 -33.6964 91° East  Level FlightAware Approximate
Mon 11:46:00 PM 53.0952 -33.4780 91° East  Level FlightAware Approximate
Mon 11:47:00 PM 53.0922 -33.2595 91° East  Level FlightAware Approximate
Mon 11:48:00 PM 53.0888 -33.0411 91° East  Level FlightAware Approximate
Mon 11:49:00 PM 53.0850 -32.8227 92° East  Level FlightAware Approximate
Mon 11:50:00 PM 53.0809 -32.6044 92° East  Level FlightAware Approximate
Mon 11:51:00 PM 53.0763 -32.3861 92° East  Level FlightAware Approximate
Mon 11:52:00 PM 53.0713 -32.1678 92° East  Level FlightAware Approximate
Mon 11:53:00 PM 53.0659 -31.9496 92° East  Level FlightAware Approximate
Mon 11:54:00 PM 53.0601 -31.7293 92° East  Level FlightAware Approximate
Mon 11:55:00 PM 53.0538 -31.5091 93° East  Level FlightAware Approximate
Mon 11:56:00 PM 53.0472 -31.2890 93° East  Level FlightAware Approximate
Mon 11:57:00 PM 53.0401 -31.0689 93° East  Level FlightAware Approximate
Mon 11:58:00 PM 53.0326 -30.8489 93° East  Level FlightAware Approximate
Mon 11:59:00 PM 53.0248 -30.6289 93° East  Level FlightAware Approximate
Tue 12:00:00 AM 53.0165 -30.4091 93° East  Level FlightAware Approximate
Tue 12:01:00 AM 53.0078 -30.1893 94° East  Level FlightAware Approximate
Tue 12:02:00 AM 53.0013 -29.9696 86° East  Level FlightAware Approximate
Tue 12:03:00 AM 53.0103 -29.7499 86° East  Level FlightAware Approximate
Tue 12:04:00 AM 53.0188 -29.5301 86° East  Level FlightAware Approximate
Tue 12:05:00 AM 53.0270 -29.3102 86° East  Level FlightAware Approximate
Tue 12:06:00 AM 53.0348 -29.0903 87° East  Level FlightAware Approximate
Tue 12:07:00 AM 53.0421 -28.8703 87° East  Level FlightAware Approximate
Tue 12:08:00 AM 53.0491 -28.6502 87° East  Level FlightAware Approximate
Tue 12:09:00 AM 53.0556 -28.4300 87° East  Level FlightAware Approximate
Tue 12:10:00 AM 53.0617 -28.2097 87° East  Level FlightAware Approximate
Tue 12:11:00 AM 53.0675 -27.9894 87° East  Level FlightAware Approximate
Tue 12:12:00 AM 53.0728 -27.7691 88° East  Level FlightAware Approximate
Tue 12:13:00 AM 53.0777 -27.5487 88° East  Level FlightAware Approximate
Tue 12:14:00 AM 53.0822 -27.3282 88° East  Level FlightAware Approximate
Tue 12:15:00 AM 53.0863 -27.1077 88° East  Level FlightAware Approximate
Tue 12:16:00 AM 53.0900 -26.8872 88° East  Level FlightAware Approximate
Tue 12:17:00 AM 53.0933 -26.6666 88° East  Level FlightAware Approximate
Tue 12:18:00 AM 53.0962 -26.4460 89° East  Level FlightAware Approximate
Tue 12:19:00 AM 53.0987 -26.2253 89° East  Level FlightAware Approximate
Tue 12:20:00 AM 53.1007 -26.0047 89° East  Level FlightAware Approximate
Tue 12:21:00 AM 53.1024 -25.7840 89° East  Level FlightAware Approximate
Tue 12:22:00 AM 53.1036 -25.5633 89° East  Level FlightAware Approximate
Tue 12:23:00 AM 53.1045 -25.3426 90° East  Level FlightAware Approximate
Tue 12:24:00 AM 53.1049 -25.1219 90° East  Level FlightAware Approximate
Tue 12:25:00 AM 53.1049 -24.9012 90° East  Level FlightAware Approximate
Tue 12:26:00 AM 53.1045 -24.6805 90° East  Level FlightAware Approximate
Tue 12:27:00 AM 53.1037 -24.4598 90° East  Level FlightAware Approximate
Tue 12:28:00 AM 53.1025 -24.2391 90° East  Level FlightAware Approximate
Tue 12:29:00 AM 53.1009 -24.0184 91° East  Level FlightAware Approximate
Tue 12:30:00 AM 53.0989 -23.7978 91° East  Level FlightAware Approximate
Tue 12:31:00 AM 53.0965 -23.5771 91° East  Level FlightAware Approximate
Tue 12:32:00 AM 53.0936 -23.3565 91° East  Level FlightAware Approximate
Tue 12:33:00 AM 53.0904 -23.1359 91° East  Level FlightAware Approximate
Tue 12:34:00 AM 53.0867 -22.9154 91° East  Level FlightAware Approximate
Tue 12:35:00 AM 53.0827 -22.6949 92° East  Level FlightAware Approximate
Tue 12:36:00 AM 53.0782 -22.4744 92° East  Level FlightAware Approximate
Tue 12:37:00 AM 53.0733 -22.2540 92° East  Level FlightAware Approximate
Tue 12:38:00 AM 53.0680 -22.0336 92° East  Level FlightAware Approximate
Tue 12:39:00 AM 53.0624 -21.8133 92° East  Level FlightAware Approximate
Tue 12:40:00 AM 53.0563 -21.5931 93° East  Level FlightAware Approximate
Tue 12:41:00 AM 53.0498 -21.3729 93° East  Level FlightAware Approximate
Tue 12:42:00 AM 53.0429 -21.1528 93° East  Level FlightAware Approximate
Tue 12:43:00 AM 53.0355 -20.9328 93° East  Level FlightAware Approximate
Tue 12:44:00 AM 53.0278 -20.7128 93° East  Level FlightAware Approximate
Tue 12:45:00 AM 53.0197 -20.4929 93° East  Level FlightAware Approximate
Tue 12:46:00 AM 53.0112 -20.2735 94° East  Level FlightAware Approximate
Tue 12:47:00 AM 53.0023 -20.0543 94° East  Level FlightAware Approximate
Tue 12:48:00 AM 53.0149 -19.8365 81° East  Level FlightAware Approximate
Tue 12:49:00 AM 53.0343 -19.6190 81° East  Level FlightAware Approximate
Tue 12:50:00 AM 53.0533 -19.4013 82° East  Level FlightAware Approximate
Tue 12:51:00 AM 53.0719 -19.1834 82° East  Level FlightAware Approximate
Tue 12:52:00 AM 53.0901 -18.9654 82° East  Level FlightAware Approximate
Tue 12:53:00 AM 53.1080 -18.7471 82° East  Level FlightAware Approximate
Tue 12:54:00 AM 53.1254 -18.5287 82° East  Level FlightAware Approximate
Tue 12:55:00 AM 53.1424 -18.3101 83° East  Level FlightAware Approximate
Tue 12:56:00 AM 53.1590 -18.0914 83° East  Level FlightAware Approximate
Tue 12:57:00 AM 53.1752 -17.8724 83° East  Level FlightAware Approximate
Tue 12:58:00 AM 53.1911 -17.6533 83° East  Level FlightAware Approximate
Tue 12:59:00 AM 53.2065 -17.4341 83° East  Level FlightAware Approximate
Tue 01:00:00 AM 53.2215 -17.2147 83° East  Level FlightAware Approximate
Tue 01:01:00 AM 53.2361 -16.9951 84° East  Level FlightAware Approximate
Tue 01:02:00 AM 53.2503 -16.7754 84° East  Level FlightAware Approximate
Tue 01:03:00 AM 53.2641 -16.5555 84° East  Level FlightAware Approximate
Tue 01:04:00 AM 53.2775 -16.3355 84° East  Level FlightAware Approximate
Tue 01:05:00 AM 53.2905 -16.1154 84° East  Level FlightAware Approximate
Tue 01:06:00 AM 53.3031 -15.8951 84° East  Level FlightAware Approximate
Tue 01:07:00 AM 53.3153 -15.6748 85° East  Level FlightAware Approximate
Tue 01:08:00 AM 53.3270 -15.4542 85° East  Level FlightAware Approximate
Tue 01:09:00 AM 53.3384 -15.2336 85° East  Level FlightAware Approximate
Tue 01:09:02 AM 53.0830 -13.7930 85° East 443 510 35,000  Level FlightAware ADS-B
Tue 01:09:42 AM 53.0940 -13.6600 82° East 443 510 35,000  Level FlightAware ADS-B
Tue 01:10:42 AM 53.1110 -13.4580 82° East 444 511 35,000  Level FlightAware ADS-B
Tue 01:11:25 AM 53.1230 -13.3330 81° East 444 511 35,000  Level FlightAware ADS-B
Tue 01:12:32 AM 53.1430 -13.0940 82° East 444 511 35,000  Level FlightAware ADS-B
Tue 01:13:09 AM 53.1520 -12.9810 82° East 444 511 35,000  Level FlightAware ADS-B
Tue 01:13:57 AM 53.1670 -12.7960 82° East 445 512 35,000  Level FlightAware ADS-B
Tue 01:14:38 AM 53.1760 -12.6680 83° East 445 512 35,000  Level FlightAware ADS-B
Tue 01:15:32 AM 53.1910 -12.4730 83° East 447 514 35,000  Level FlightAware ADS-B
Tue 01:16:12 AM 53.2010 -12.3330 83° East 448 516 35,000  Level FlightAware ADS-B
Tue 01:17:02 AM 53.2130 -12.1640 83° East 448 516 35,000  Level FlightAware ADS-B
Tue 01:17:42 AM 53.2210 -12.0340 84° East 449 517 35,000  Level FlightAware ADS-B
Tue 01:18:27 AM 53.2320 -11.8710 84° East 449 517 35,000  Level FlightAware ADS-B
Tue 01:19:07 AM 53.2410 -11.7360 84° East 450 518 35,000  Level FlightAware ADS-B
Tue 01:19:47 AM 53.2500 -11.5950 84° East 450 518 35,000  Level FlightAware ADS-B
Tue 01:20:27 AM 53.2590 -11.4590 84° East 451 519 35,000  Level FlightAware ADS-B
Tue 01:21:12 AM 53.2680 -11.3010 84° East 450 518 35,000  Level FlightAware ADS-B
Tue 01:21:57 AM 53.2780 -11.1460 84° East 451 519 35,000  Level FlightAware ADS-B
Tue 01:22:32 AM 53.2850 -11.0240 84° East 452 520 35,000  Level FlightAware ADS-B
Tue 01:23:17 AM 53.2940 -10.8710 84° East 452 520 35,000  Level FlightAware ADS-B
Tue 01:23:53 AM 53.3010 -10.7470 85° East 452 520 35,000  Level FlightAware ADS-B
Tue 01:24:43 AM 53.3110 -10.5810 84° East 453 521 35,000  Level FlightAware ADS-B
Tue 01:25:25 AM 53.3190 -10.4320 85° East 453 521 35,000  Level FlightAware ADS-B
Tue 01:26:03 AM 53.3260 -10.2920 85° East 454 522 35,000  Level FlightAware ADS-B
Tue 01:26:48 AM 53.3340 -10.1480 85° East 454 522 35,000  Level FlightAware ADS-B
Tue 01:27:28 AM 53.3420 -9.9920 85° East 454 522 35,000  Level FlightAware ADS-B
Tue 01:28:14 AM 53.3500 -9.8360 85° East 454 522 35,000  Level FlightAware ADS-B
Tue 01:28:54 AM 53.3560 -9.7040 86° East 454 522 35,000  Level FlightAware ADS-B
Tue 01:29:35 AM 53.3640 -9.5520 85° East 455 524 35,000  Level FlightAware ADS-B
Tue 01:30:20 AM 53.3710 -9.4050 85° East 454 522 35,000  Level FlightAware ADS-B
Tue 01:31:00 AM 53.3770 -9.2630 86° East 454 522 35,000  Level FlightAware ADS-B
Tue 01:31:40 AM 53.3830 -9.1200 86° East 454 522 35,000  Level FlightAware ADS-B
Tue 01:32:08 AM 53.3819 -8.9932 86° East 450 518 35,000 -130 Level FlightAware UK
Tue 01:32:26 AM 53.3840 -8.9296 87° East 450 518 34,900  Descending FlightAware UK
Tue 01:32:27 AM 53.3910 -8.9470 87° East 453 521 35,000  Climbing FlightAware ADS-B
Tue 01:32:44 AM 53.3868 -8.8671 87° East 450 518 34,900 -171 Descending FlightAware UK
Tue 01:33:02 AM 53.3895 -8.8045 86° East 446 513 34,900 261 Level FlightAware UK
Tue 01:33:07 AM 53.3970 -8.8060 86° East 451 519 35,000 250 Climbing FlightAware ADS-B
Tue 01:33:26 AM 53.3929 -8.7211 86° East 448 516 35,000  Level FlightAware UK
Tue 01:33:44 AM 53.3956 -8.6586 86° East 448 516 35,000  Level FlightAware UK
Tue 01:33:52 AM 53.4040 -8.6510 86° East 449 517 35,000  Level FlightAware ADS-B
Tue 01:34:08 AM 53.3989 -8.5755 86° East 448 516 35,000  Level FlightAware UK
Tue 01:34:26 AM 53.4012 -8.5131 86° East 448 516 35,000  Level FlightAware UK
Tue 01:34:32 AM 53.4090 -8.5140 86° East 447 514 35,000  Level FlightAware ADS-B
Tue 01:34:50 AM 53.4045 -8.4299 86° East 446 513 35,000  Level FlightAware UK
Tue 01:35:08 AM 53.4072 -8.3680 86° East 448 516 35,000  Level FlightAware UK
Tue 01:35:16 AM 53.4160 -8.3620 86° East 444 511 35,000  Level FlightAware ADS-B
Tue 01:35:32 AM 53.4105 -8.2849 86° East 448 516 35,000  Level FlightAware UK
Tue 01:35:50 AM 53.4127 -8.2230 87° East 446 513 35,000  Level FlightAware UK
Tue 01:35:56 AM 53.4210 -8.2240 87° East 442 509 35,000  Level FlightAware ADS-B
Tue 01:36:14 AM 53.4155 -8.1407 87° East 444 511 35,000  Level FlightAware UK
Tue 01:36:32 AM 53.4177 -8.0795 87° East 444 511 35,000  Level FlightAware UK
Tue 01:36:36 AM 53.4260 -8.0880 87° East 440 506 35,000  Level FlightAware ADS-B
Tue 01:36:56 AM 53.4204 -7.9982 87° East 442 509 35,000  Level FlightAware UK
Tue 01:37:14 AM 53.4222 -7.9375 87° East 442 509 35,000  Level FlightAware UK
Tue 01:37:21 AM 53.4310 -7.9360 87° East 439 505 35,000  Level FlightAware ADS-B
Tue 01:37:44 AM 53.4246 -7.8361 87° East 442 509 35,000  Level FlightAware UK
Tue 01:38:01 AM 53.4340 -7.7970 88° East 439 505 35,000  Level FlightAware ADS-B
Tue 01:38:02 AM 53.4258 -7.7752 88° East 440 506 35,000  Level FlightAware UK
Tue 01:38:20 AM 53.4274 -7.7141 88° East 440 506 35,000  Level FlightAware UK
Tue 01:38:38 AM 53.4292 -7.6532 87° East 442 509 35,000  Level FlightAware UK
Tue 01:38:45 AM 53.4390 -7.6490 87° East 439 505 35,000  Level FlightAware ADS-B
Tue 01:39:02 AM 53.4322 -7.5721 87° East 442 509 35,000  Level FlightAware UK
Tue 01:39:20 AM 53.4347 -7.5112 86° East 444 511 35,000  Level FlightAware UK
Tue 01:39:27 AM 53.4440 -7.5040 86° East 439 505 35,000  Level FlightAware ADS-B
Tue 01:39:44 AM 53.4378 -7.4299 86° East 442 509 35,000  Level FlightAware UK
Tue 01:40:02 AM 53.4399 -7.3690 87° East 442 509 35,000  Level FlightAware UK
Tue 01:40:07 AM 53.4490 -7.3700 87° East 439 505 35,000  Level FlightAware ADS-B
Tue 01:40:26 AM 53.4427 -7.2877 87° East 446 513 35,000  Level FlightAware UK
Tue 01:40:45 AM 53.4447 -7.2260 87° East 446 513 35,000  Level FlightAware UK
Tue 01:40:50 AM 53.4540 -7.2260 87° East 440 506 35,000  Level FlightAware ADS-B
Tue 01:41:09 AM 53.4472 -7.1446 87° East 448 516 35,000  Level FlightAware UK
Tue 01:41:27 AM 53.4490 -7.0835 87° East 450 518 35,000  Level FlightAware UK
Tue 01:41:30 AM 53.4580 -7.0900 87° East 439 505 35,000  Level FlightAware ADS-B
Tue 01:41:45 AM 53.4507 -7.0224 87° East 452 520 35,000  Level FlightAware UK
Tue 01:42:03 AM 53.4522 -6.9612 88° East 450 518 35,000  Level FlightAware UK
Tue 01:42:16 AM 53.4620 -6.9340 88° East 439 505 35,000  Level FlightAware ADS-B
Tue 01:42:33 AM 53.4543 -6.8595 88° East 450 518 35,000  Level FlightAware UK
Tue 01:42:51 AM 53.4556 -6.7986 88° East 448 516 35,000  Level FlightAware UK
Tue 01:42:56 AM 53.4660 -6.8000 88° East 438 504 35,000  Level FlightAware ADS-B
Tue 01:43:15 AM 53.4573 -6.7174 88° East 446 513 35,000  Level FlightAware UK
Tue 01:43:33 AM 53.4588 -6.6566 88° East 448 516 35,000  Level FlightAware UK
Tue 01:43:39 AM 53.4690 -6.6520 88° East 438 504 35,000  Level FlightAware ADS-B
Tue 01:43:57 AM 53.4608 -6.5755 88° East 448 516 35,000  Level FlightAware UK
Tue 01:44:15 AM 53.4620 -6.5148 88° East 450 518 35,000  Level FlightAware UK
Tue 01:44:19 AM 53.4720 -6.5230 88° East 437 503 35,000  Level FlightAware ADS-B
Tue 01:44:39 AM 53.4638 -6.4338 88° East 450 518 35,000  Level FlightAware UK
Tue 01:44:57 AM 53.4650 -6.3731 88° East 448 516 35,000  Level FlightAware UK
Tue 01:45:03 AM 53.4760 -6.3750 88° East 436 502 35,000  Level FlightAware ADS-B
Tue 01:45:21 AM 53.4666 -6.2923 88° East 448 516 35,000  Level FlightAware UK
Tue 01:45:39 AM 53.4678 -6.2317 88° East 446 513 35,000  Level FlightAware UK
Tue 01:45:51 AM 53.4770 -6.3090 88° East 436 502 35,000  Level FlightAware ADS-B
Tue 01:45:57 AM 53.4690 -6.1712 88° East 446 513 35,000  Level FlightAware UK
Tue 01:46:15 AM 53.4702 -6.1107 88° East 446 513 35,000  Level FlightAware UK
Tue 01:46:33 AM 53.4713 -6.0496 88° East 446 513 35,000  Level FlightAware UK
Tue 01:46:40 AM 53.4830 -6.0420 88° East 435 501 35,000  Level FlightAware ADS-B
Tue 01:46:57 AM 53.4729 -5.9690 88° East 444 511 35,000  Level FlightAware UK
Tue 01:47:15 AM 53.4739 -5.9086 88° East 446 513 35,000  Level FlightAware UK
Tue 01:47:22 AM 53.4860 -5.9010 88° East 435 501 35,000  Level FlightAware ADS-B
Tue 01:47:39 AM 53.4752 -5.8283 88° East 444 511 35,000  Level FlightAware UK
Tue 01:47:57 AM 53.4755 -5.7680 89° East 444 511 35,000  Level FlightAware UK
Tue 01:48:02 AM 53.4870 -5.7660 89° East 434 499 35,000  Level FlightAware ADS-B
Tue 01:48:21 AM 53.4745 -5.6877 89° East 444 511 35,000  Level FlightAware UK
Tue 01:48:39 AM 53.4735 -5.6276 92° East 444 511 35,000  Level FlightAware UK
Tue 01:48:47 AM 53.4850 -5.6210 92° East 433 498 35,000  Level FlightAware ADS-B
Tue 01:49:03 AM 53.4718 -5.5474 92° East 442 509 35,000  Level FlightAware UK
Tue 01:49:21 AM 53.4704 -5.4872 92° East 444 511 35,000  Level FlightAware UK
Tue 01:49:27 AM 53.4820 -5.4810 92° East 433 498 35,000  Level FlightAware ADS-B
Tue 01:49:45 AM 53.4684 -5.4070 92° East 448 516 35,000  Level FlightAware UK
Tue 01:50:03 AM 53.4668 -5.3469 93° East 448 516 35,000  Level FlightAware UK
Tue 01:50:05 AM 53.4790 -5.3520 93° East 433 498 35,000  Level FlightAware ADS-B
Tue 01:50:21 AM 53.4652 -5.2868 93° East 450 518 35,000  Level FlightAware UK
Tue 01:50:39 AM 53.4637 -5.2268 92° East 448 516 35,000  Level FlightAware UK
Tue 01:50:51 AM 53.4760 -5.1970 92° East 432 497 35,000  Level FlightAware ADS-B
Tue 01:51:31 AM 53.4730 -5.0620 92° East 431 496 35,000  Level FlightAware ADS-B
Tue 01:51:33 AM 53.4593 -5.0464 92° East 444 511 35,000  Level FlightAware UK
Tue 01:51:51 AM 53.4577 -4.9866 92° East 442 509 35,000  Level FlightAware UK
Tue 01:52:09 AM 53.4562 -4.9269 92° East 442 509 35,000  Level FlightAware UK
Tue 01:52:16 AM 53.4690 -4.9160 92° East 431 496 35,000  Level FlightAware ADS-B
Tue 01:52:33 AM 53.4543 -4.8472 92° East 442 509 35,000  Level FlightAware UK
Tue 01:52:51 AM 53.4528 -4.7875 93° East 440 506 35,000  Level FlightAware UK
Tue 01:52:57 AM 53.4660 -4.7800 93° East 431 496 35,000  Level FlightAware ADS-B
Tue 01:53:15 AM 53.4505 -4.7079 93° East 446 513 35,000  Level FlightAware UK
Tue 01:53:33 AM 53.4488 -4.6481 93° East 444 511 35,000  Level FlightAware UK
Tue 01:53:40 AM 53.4620 -4.6380 93° East 431 496 35,000  Level FlightAware ADS-B
Tue 01:53:57 AM 53.4463 -4.5683 93° East 448 516 35,000  Level FlightAware UK
Tue 01:54:15 AM 53.4444 -4.5079 93° East 446 513 35,000  Level FlightAware UK
Tue 01:54:22 AM 53.4580 -4.4980 93° East 430 495 35,000  Level FlightAware ADS-B
Tue 01:54:45 AM 53.4412 -4.4084 93° East 446 513 35,000  Level FlightAware UK
Tue 01:55:03 AM 53.4394 -4.3494 93° East 444 511 35,000  Level FlightAware UK
Tue 01:55:06 AM 53.4540 -4.3530 93° East 430 495 35,000  Level FlightAware ADS-B
Tue 01:55:21 AM 53.4375 -4.2891 93° East 444 511 35,000  Level FlightAware UK
Tue 01:55:39 AM 53.4356 -4.2295 93° East 442 509 35,000  Level FlightAware UK
Tue 01:55:45 AM 53.4500 -4.2210 93° East 429 494 35,000  Level FlightAware ADS-B
Tue 01:56:03 AM 53.4329 -4.1501 93° East 444 511 35,000  Level FlightAware UK
Tue 01:56:21 AM 53.4308 -4.0906 93° East 442 509 35,000  Level FlightAware UK
Tue 01:56:30 AM 53.4450 -4.0710 93° East 429 494 35,000  Level FlightAware ADS-B
Tue 01:56:57 AM 53.4267 -3.9717 93° East 442 509 35,000  Level FlightAware UK
Tue 01:57:09 AM 53.4410 -3.9400 93° East 429 494 35,000  Level FlightAware ADS-B
Tue 01:57:27 AM 53.4233 -3.8726 93° East 442 509 35,000  Level FlightAware UK
Tue 01:57:45 AM 53.4212 -3.8125 93° East 442 509 35,000  Level FlightAware UK
Tue 01:57:52 AM 53.4360 -3.8000 93° East 429 494 35,000  Level FlightAware ADS-B
Tue 01:58:09 AM 53.4182 -3.7332 93° East 442 509 35,000  Level FlightAware UK
Tue 01:58:33 AM 53.4153 -3.6545 94° East 442 509 35,000  Level FlightAware UK
Tue 01:58:34 AM 53.4310 -3.6670 94° East 430 495 35,000  Level FlightAware ADS-B
Tue 01:58:51 AM 53.4131 -3.5942 94° East 444 511 35,000  Level FlightAware UK
Tue 01:59:09 AM 53.4110 -3.5347 93° East 442 509 35,000  Level FlightAware UK
Tue 01:59:18 AM 53.4260 -3.5150 93° East 429 494 35,000  Level FlightAware ADS-B
Tue 01:59:36 AM 53.4241 -3.4523 93° East 431 496 35,000  Level FlightAware ADS-B
Tue 01:59:52 AM 53.4059 -3.3949 93° East 440 506 35,000  Level FlightAware UK
Tue 02:00:06 AM 53.4205 -3.3517 93° East 431 496 35,000  Level FlightAware ADS-B
Tue 02:00:22 AM 53.4023 -3.2954 93° East 438 504 35,000  Level FlightAware UK
Tue 02:00:37 AM 53.4167 -3.2513 93° East 432 497 35,000  Level FlightAware ADS-B
Tue 02:00:52 AM 53.3983 -3.1960 93° East 438 504 35,000  Level FlightAware UK
Tue 02:01:08 AM 53.4126 -3.1467 93° East 432 497 35,000  Level FlightAware ADS-B
Tue 02:01:34 AM 53.3923 -3.0559 93° East 440 506 35,000  Level FlightAware UK
Tue 02:01:44 AM 53.4078 -3.0275 93° East 432 497 35,000  Level FlightAware ADS-B
Tue 02:02:04 AM 53.3879 -2.9563 93° East 438 504 35,000  Level FlightAware UK
Tue 02:02:27 AM 53.4012 -2.8819 93° East 432 497 35,000  Level FlightAware ADS-B
Tue 02:02:58 AM 53.3793 -2.7768 93° East 436 502 35,000  Level FlightAware UK
Tue 02:03:19 AM 53.3934 -2.7080 93° East 434 499 35,000  Level FlightAware ADS-B
Tue 02:03:34 AM 53.3736 -2.6567 93° East 438 504 35,000  Level FlightAware UK
Tue 02:03:50 AM 53.3886 -2.6055 93° East 436 502 35,000  Level FlightAware ADS-B
Tue 02:04:16 AM 53.3669 -2.5155 93° East 440 506 35,000  Level FlightAware UK
Tue 02:04:40 AM 53.3633 -2.4349 94° East 440 506 35,000  Level FlightAware UK
Tue 02:04:49 AM 53.3794 -2.4083 94° East 437 503 35,000  Level FlightAware ADS-B
Tue 02:05:10 AM 53.3584 -2.3338 94° East 442 509 35,000  Level FlightAware UK
Tue 02:05:20 AM 53.3750 -2.3070 94° East 438 504 35,000  Level FlightAware ADS-B
Tue 02:05:52 AM 53.3485 -2.1925 94° East 440 506 35,000  Level FlightAware UK
Tue 02:06:04 AM 53.3630 -2.1570 94° East 437 503 35,000  Level FlightAware ADS-B
Tue 02:06:22 AM 53.3390 -2.0929 94° East 440 506 35,000  Level FlightAware UK
Tue 02:06:40 AM 53.3331 -2.0324 99° East 440 506 35,000  Level FlightAware UK
Tue 02:06:49 AM 53.3483 -2.0059 99° East 439 505 35,000  Level FlightAware ADS-B
Tue 02:07:04 AM 53.3252 -1.9526 99° East 440 506 35,000  Level FlightAware UK
Tue 02:07:19 AM 53.3386 -1.9048 99° East 439 505 35,000  Level FlightAware ADS-B
Tue 02:08:00 AM 53.3252 -1.7686 99° East 440 506 35,000  Level FlightAware ADS-B
Tue 02:08:29 AM 53.2974 -1.6720 99° East 438 504 35,000  Level FlightAware UK
Tue 02:08:35 AM 53.3135 -1.6497 99° East 441 507 35,000  Level FlightAware ADS-B
Tue 02:09:06 AM 53.3034 -1.5475 99° East 442 509 35,000 -125 Level FlightAware ADS-B
Tue 02:09:23 AM 53.2792 -1.4904 99° East 440 506 34,900  Descending FlightAware UK
Tue 02:09:39 AM 53.2940 -1.4460 99° East 442 509 35,000  Climbing FlightAware ADS-B
Tue 02:10:05 AM 53.2653 -1.3493 99° East 442 509 34,900  Descending FlightAware UK
Tue 02:10:21 AM 53.2787 -1.2938 99° East 444 511 35,000  Climbing FlightAware ADS-B
Tue 02:10:47 AM 53.2515 -1.2078 99° East 444 511 34,900  Descending FlightAware UK
Tue 02:10:59 AM 53.2660 -1.1653 99° East 444 511 35,000 200 Climbing FlightAware ADS-B
Tue 02:11:17 AM 53.2411 -1.1061 99° East 446 513 35,000  Level FlightAware UK
Tue 02:11:32 AM 53.2546 -1.0545 99° East 444 511 35,000  Level FlightAware ADS-B
Tue 02:11:53 AM 53.2285 -0.9851 99° East 450 518 35,000  Level FlightAware UK
Tue 02:12:11 AM 53.2220 -0.9248 100° East 450 518 35,000  Level FlightAware UK
Tue 02:12:25 AM 53.2360 -0.8810 100° East 444 511 35,000  Level FlightAware ADS-B
Tue 02:12:41 AM 53.2111 -0.8242 100° East 450 518 35,000  Level FlightAware UK
Tue 02:12:59 AM 53.2045 -0.7631 100° East 450 518 35,000  Level FlightAware UK
Tue 02:13:05 AM 53.2210 -0.7430 100° East 444 511 35,000  Level FlightAware ADS-B
Tue 02:13:23 AM 53.1957 -0.6820 100° East 450 518 35,000  Level FlightAware UK
Tue 02:13:41 AM 53.1891 -0.6218 100° East 448 516 35,000  Level FlightAware UK
Tue 02:13:51 AM 53.2050 -0.5970 100° East 443 510 35,000  Level FlightAware ADS-B
Tue 02:14:02 AM 53.2003 -0.5516 100° East 442 509 35,000  Level FlightAware ADS-B
Tue 02:14:29 AM 53.1713 -0.4613 100° East 448 516 35,000  Level FlightAware UK
Tue 02:14:56 AM 53.1803 -0.3705 100° East 441 507 35,000  Level FlightAware ADS-B
Tue 02:15:11 AM 53.1557 -0.3213 100° East 446 513 35,000  Level FlightAware UK
Tue 02:15:26 AM 53.1691 -0.2687 100° East 441 507 35,000  Level FlightAware ADS-B
Tue 02:15:41 AM 53.1447 -0.2214 100° East 446 513 35,000  Level FlightAware UK
Tue 02:16:01 AM 53.1558 -0.1521 100° East 440 506 35,000  Level FlightAware ADS-B
Tue 02:16:18 AM 53.1310 -0.1014 100° East 444 511 35,000  Level FlightAware UK
Tue 02:16:35 AM 53.1432 -0.0407 100° East 439 505 35,000  Level FlightAware ADS-B
Tue 02:16:54 AM 53.1173 0.0182 100° East 442 509 35,000  Level FlightAware UK
Tue 02:17:07 AM 53.1310 0.0647 100° East 438 504 35,000  Level FlightAware ADS-B
Tue 02:17:24 AM 53.1059 0.1170 100° East 440 506 35,000  Level FlightAware UK
Tue 02:17:39 AM 53.1186 0.1718 100° East 437 503 35,000  Level FlightAware ADS-B
Tue 02:18:00 AM 53.0921 0.2352 100° East 438 504 35,000  Level FlightAware UK
Tue 02:18:10 AM 53.1067 0.2724 100° East 436 502 35,000  Level FlightAware ADS-B
Tue 02:18:30 AM 53.0805 0.3335 100° East 438 504 35,000  Level FlightAware UK
Tue 02:18:49 AM 53.0917 0.3999 100° East 435 501 35,000  Level FlightAware ADS-B
Tue 02:19:06 AM 53.0663 0.4519 100° East 438 504 35,000  Level FlightAware UK
Tue 02:19:21 AM 53.0790 0.5055 100° East 435 501 35,000  Level FlightAware ADS-B
Tue 02:19:36 AM 53.0546 0.5498 100° East 440 506 35,000  Level FlightAware UK
Tue 02:19:53 AM 53.0670 0.6070 100° East 434 499 35,000  Level FlightAware ADS-B
Tue 02:20:12 AM 53.0587 0.6725 102° East 436 502 35,000  Level FlightAware ADS-B
Tue 02:20:42 AM 53.0285 0.7652 102° East 438 504 35,000  Level FlightAware UK
Tue 02:20:51 AM 53.0431 0.7997 102° East 436 502 35,000  Level FlightAware ADS-B
Tue 02:21:06 AM 53.0189 0.8436 102° East 440 506 35,000  Level FlightAware UK
Tue 02:21:21 AM 53.0311 0.8984 102° East 436 502 35,000  Level FlightAware ADS-B
Tue 02:21:52 AM 53.0185 0.9990 102° East 436 502 35,000  Level FlightAware ADS-B
Tue 02:22:12 AM 52.9921 1.0596 102° East 438 504 35,000  Level FlightAware UK
Tue 02:22:23 AM 53.0058 1.1001 102° East 435 501 35,000  Level FlightAware ADS-B
Tue 02:22:56 AM 52.9923 1.2069 102° East 436 502 35,000  Level FlightAware ADS-B
Tue 02:23:12 AM 52.9673 1.2559 102° East 440 506 35,000  Level FlightAware UK
Tue 02:23:27 AM 52.9792 1.3097 102° East 436 502 35,000  Level FlightAware ADS-B
Tue 02:23:49 AM 52.9526 1.3743 102° East 438 504 35,000  Level FlightAware UK
Tue 02:24:03 AM 52.9643 1.4267 102° East 437 503 35,000  Level FlightAware ADS-B
Tue 02:24:19 AM 52.9398 1.4725 102° East 438 504 35,000  Level FlightAware UK
Tue 02:24:34 AM 52.9513 1.5276 102° East 437 503 35,000  Level FlightAware ADS-B
Tue 02:24:55 AM 52.9252 1.5897 102° East 438 504 35,000  Level FlightAware UK
Tue 02:25:05 AM 52.9383 1.6279 102° East 437 503 35,000  Level FlightAware ADS-B
Tue 02:25:25 AM 52.9120 1.6880 102° East 438 504 35,000  Level FlightAware UK
Tue 02:25:41 AM 52.9227 1.7461 102° East 438 504 35,000  Level FlightAware ADS-B
Tue 02:26:00 AM 52.8966 1.8052 102° East 440 506 35,000  Level FlightAware UK
Tue 02:26:16 AM 52.9076 1.8605 102° East 438 504 35,000  Level FlightAware ADS-B
Tue 02:26:49 AM 52.8758 1.9637 102° East 438 504 35,000  Level FlightAware UK
Tue 02:26:52 AM 52.8920 1.9770 102° East 439 505 35,000  Level FlightAware ADS-B
Tue 02:27:13 AM 52.8653 2.0423 102° East 438 504 35,000  Level FlightAware UK
Tue 02:27:37 AM 52.8718 2.1265 102° East 441 507 35,000  Level FlightAware ADS-B
Tue 02:27:55 AM 52.8467 2.1808 102° East 438 504 35,000  Level FlightAware UK
Tue 02:28:16 AM 52.8540 2.2540 102° East 441 507 35,000  Level FlightAware ADS-B
Tue 02:28:31 AM 52.8306 2.2984 102° East 438 504 35,000  Level FlightAware UK
Tue 02:28:49 AM 52.8187 2.3566 109° East 440 506 35,000  Level FlightAware UK
Tue 02:28:58 AM 52.8310 2.3840 109° East 440 506 35,000  Level FlightAware ADS-B
Tue 02:29:19 AM 52.7954 2.4497 109° East 440 506 35,000  Level FlightAware UK
Tue 02:29:41 AM 52.7970 2.5130 109° East 441 507 35,000  Level FlightAware ADS-B
Tue 02:30:01 AM 52.7609 2.5801 109° East 442 509 35,000  Level FlightAware UK
Tue 02:30:21 AM 52.7620 2.6430 109° East 442 509 35,000  Level FlightAware ADS-B
Tue 02:30:37 AM 52.7315 2.6906 109° East 442 509 35,000  Level FlightAware UK
Tue 02:31:01 AM 52.7114 2.7652 114° Southeast 442 509 35,000  Level FlightAware UK
Tue 02:31:08 AM 52.7230 2.7890 114° Southeast 443 510 35,000  Level FlightAware ADS-B
Tue 02:31:25 AM 52.6914 2.8393 114° Southeast 442 509 35,000  Level FlightAware UK
Tue 02:31:43 AM 52.6766 2.8949 114° Southeast 442 509 35,000  Level FlightAware UK
Tue 02:31:48 AM 52.6890 2.9120 114° Southeast 443 510 35,000  Level FlightAware ADS-B
Tue 02:32:13 AM 52.6516 2.9873 114° Southeast 442 509 35,000  Level FlightAware UK
Tue 02:32:31 AM 52.6365 3.0427 114° Southeast 442 509 35,000  Level FlightAware UK
Tue 02:32:32 AM 52.6520 3.0470 114° Southeast 444 511 35,000  Level FlightAware ADS-B
Tue 02:32:49 AM 52.6213 3.0981 114° Southeast 442 509 35,000  Level FlightAware UK
Tue 02:33:13 AM 52.6180 3.1720 114° Southeast 444 511 35,000  Level FlightAware ADS-B
Tue 02:33:43 AM 52.5758 3.2643 114° Southeast 444 511 35,000  Level FlightAware UK
Tue 02:33:53 AM 52.5840 3.2960 114° Southeast 443 510 35,000  Level FlightAware ADS-B
Tue 02:34:38 AM 52.5460 3.4310 115° Southeast 443 510 35,000  Level FlightAware ADS-B
Tue 02:34:55 AM 52.5149 3.4860 115° Southeast 442 509 35,000  Level FlightAware UK
Tue 02:35:13 AM 52.4994 3.5410 115° Southeast 442 509 35,000  Level FlightAware UK
Tue 02:35:18 AM 52.5120 3.5520 115° Southeast 443 510 35,000  Level FlightAware ADS-B
Tue 02:35:37 AM 52.4762 3.6123 115° Southeast 442 509 35,000  Level FlightAware UK
Tue 02:35:59 AM 52.4720 3.6750 115° Southeast 443 510 35,000  Level FlightAware ADS-B
Tue 02:36:43 AM 52.4260 3.8010 121° Southeast 441 507 35,000  Level FlightAware ADS-B
Tue 02:37:25 AM 52.3830 3.9130 122° Southeast 441 507 35,000  Level FlightAware ADS-B
Tue 02:37:43 AM 52.3442 3.9736 122° Southeast 438 504 35,000  Level FlightAware UK
Tue 02:38:05 AM 52.3370 4.0330 122° Southeast 441 507 35,000  Level FlightAware ADS-B
Tue 02:38:25 AM 52.2988 4.0924 122° Southeast 436 502 35,000  Level FlightAware UK
Tue 02:38:49 AM 52.2900 4.1580 122° Southeast 442 509 35,000  Level FlightAware ADS-B
Tue 02:39:29 AM 52.2470 4.2710 122° Southeast 441 507 35,000  Level FlightAware ADS-B
Tue 02:40:01 AM 52.1967 4.3653 122° Southeast 436 502 35,000  Level FlightAware UK
Tue 02:40:11 AM 52.2060 4.3790 122° Southeast 441 507 35,000  Level FlightAware ADS-B
Tue 02:40:43 AM 52.1515 4.4844 122° Southeast 436 502 35,000  Level FlightAware UK
Tue 02:40:55 AM 52.1550 4.5130 122° Southeast 443 510 35,000  Level FlightAware ADS-B
Tue 02:41:36 AM 52.1140 4.6210 122° Southeast 443 510 35,000  Level FlightAware ADS-B
Tue 02:42:20 AM 52.0640 4.7520 122° Southeast 443 510 35,000  Level FlightAware ADS-B
Tue 02:42:58 AM 52.0220 4.8580 123° Southeast 443 510 35,000  Level FlightAware ADS-B
Tue 02:43:26 AM 51.9751 4.9426 123° Southeast 438 504 35,000  Level FlightAware UK
Tue 02:43:40 AM 51.9770 4.9750 123° Southeast 444 511 35,000  Level FlightAware ADS-B
Tue 02:44:02 AM 51.9348 5.0431 123° Southeast 438 504 35,000  Level FlightAware UK
Tue 02:44:24 AM 51.9270 5.1030 119° Southeast 444 511 35,000  Level FlightAware ADS-B
Tue 02:44:26 AM 51.9113 5.1129 119° Southeast 440 506 35,000  Level FlightAware UK
Tue 02:45:06 AM 51.8830 5.2150 122° Southeast 444 511 35,000  Level FlightAware ADS-B
Tue 02:45:48 AM 51.8360 5.3360 122° Southeast 444 511 35,000 -88 Level FlightAware ADS-B
Tue 02:46:14 AM 51.7941 5.4174 122° Southeast 438 504 34,900  Descending FlightAware UK
Tue 02:46:23 AM 51.8010 5.4270 122° Southeast 445 512 35,000 200 Climbing FlightAware ADS-B
Tue 02:46:44 AM 51.7580 5.4989 122° Southeast 438 504 35,000  Level FlightAware UK
Tue 02:47:02 AM 51.7375 5.5489 123° Southeast 438 504 35,000  Level FlightAware UK
Tue 02:47:14 AM 51.7410 5.5780 123° Southeast 444 511 35,000  Level FlightAware ADS-B
Tue 02:47:32 AM 51.7040 5.6332 123° Southeast 438 504 35,000  Level FlightAware UK
Tue 02:47:50 AM 51.6844 5.6837 122° Southeast 438 504 35,000  Level FlightAware UK
Tue 02:47:54 AM 51.6960 5.6900 122° Southeast 444 511 35,000  Level FlightAware ADS-B
Tue 02:48:14 AM 51.6581 5.7508 122° Southeast 438 504 35,000  Level FlightAware UK
Tue 02:48:38 AM 51.6460 5.8130 122° Southeast 445 512 35,000  Level FlightAware ADS-B
Tue 02:49:18 AM 51.6020 5.9240 123° Southeast 445 512 35,000  Level FlightAware ADS-B
Tue 02:50:02 AM 51.5530 6.0470 123° Southeast 446 513 35,000  Level FlightAware ADS-B
Tue 02:50:52 AM 51.4990 6.1790 123° Southeast 445 512 35,000  Level FlightAware ADS-B
Tue 02:51:38 AM 51.4470 6.3060 123° Southeast 440 506 35,000  Level FlightAware ADS-B
Tue 02:52:20 AM 51.4040 6.4100 124° Southeast 440 506 35,000  Level FlightAware ADS-B
Tue 02:52:58 AM 51.3540 6.5290 124° Southeast 443 510 35,000  Level FlightAware ADS-B
Tue 02:53:43 AM 51.3040 6.6510 123° Southeast 443 510 35,000  Level FlightAware ADS-B
Tue 02:54:23 AM 51.2600 6.7560 124° Southeast 442 509 35,000  Level FlightAware ADS-B
Tue 02:55:23 AM 51.1930 6.9180 123° Southeast 440 506 35,000  Level FlightAware ADS-B
Tue 02:55:58 AM 51.1520 7.0150 124° Southeast 441 507 35,000  Level FlightAware ADS-B
Tue 02:56:38 AM 51.1080 7.1180 124° Southeast 436 502 35,000  Level FlightAware ADS-B
Tue 02:57:29 AM 51.0380 7.2410 132° Southeast 443 510 35,000  Level FlightAware ADS-B
Tue 02:58:08 AM 50.9830 7.3300 134° Southeast 437 503 35,000  Level FlightAware ADS-B
Tue 02:58:49 AM 50.9240 7.4240 135° Southeast 442 509 35,000  Level FlightAware ADS-B
Tue 02:59:33 AM 50.8590 7.5290 134° Southeast 447 514 35,000  Level FlightAware ADS-B
Tue 03:00:44 AM 50.7630 7.6810 135° Southeast 446 513 35,000  Level FlightAware ADS-B
Tue 03:01:22 AM 50.6960 7.7880 135° Southeast 451 519 35,000  Level FlightAware ADS-B
Tue 03:02:10 AM 50.6280 7.8960 135° Southeast 453 521 35,000  Level FlightAware ADS-B
Tue 03:02:50 AM 50.5660 7.9920 135° Southeast 453 521 35,000  Level FlightAware ADS-B
Tue 03:03:30 AM 50.5080 8.0840 135° Southeast 453 521 35,000  Level FlightAware ADS-B
Tue 03:04:10 AM 50.4500 8.1750 135° Southeast 454 522 35,000  Level FlightAware ADS-B
Tue 03:04:51 AM 50.3870 8.2720 136° Southeast 453 521 35,000  Level FlightAware ADS-B
Tue 03:05:37 AM 50.3190 8.3780 135° Southeast 452 520 35,000  Level FlightAware ADS-B
Tue 03:06:19 AM 50.2550 8.4770 135° Southeast 452 520 35,000  Level FlightAware ADS-B
Tue 03:07:15 AM 50.1720 8.6040 136° Southeast 449 517 35,000  Level FlightAware ADS-B
Tue 03:07:57 AM 50.1110 8.6990 135° Southeast 447 514 35,000  Level FlightAware ADS-B
Tue 03:08:41 AM 50.0460 8.7980 136° Southeast 446 513 35,000  Level FlightAware ADS-B
Tue 03:09:21 AM 49.9870 8.8870 136° Southeast 444 511 35,000  Level FlightAware ADS-B
Tue 03:10:01 AM 49.9290 8.9750 136° Southeast 444 511 35,000  Level FlightAware ADS-B
Tue 03:10:45 AM 49.8630 9.0730 136° Southeast 442 509 35,000  Level FlightAware ADS-B
Tue 03:11:30 AM 49.8100 9.1530 136° Southeast 440 506 35,000  Level FlightAware ADS-B
Tue 03:12:07 AM 49.7450 9.2500 136° Southeast 439 505 35,000  Level FlightAware ADS-B
Tue 03:12:48 AM 49.6870 9.3380 136° Southeast 437 503 35,000  Level FlightAware ADS-B
Tue 03:13:31 AM 49.6270 9.4310 135° Southeast 436 502 35,000  Level FlightAware ADS-B
Tue 03:14:16 AM 49.5650 9.5390 131° Southeast 434 499 35,000 -225 Level FlightAware ADS-B
Tue 03:14:51 AM 49.5210 9.6180 131° Southeast 440 506 34,700 -1,229 Descending FlightAware ADS-B
Tue 03:15:39 AM 49.4530 9.7370 131° Southeast 442 509 33,300 -2,129 Descending FlightAware ADS-B
Tue 03:16:24 AM 49.3940 9.8410 131° Southeast 440 506 31,400 -2,471 Descending FlightAware ADS-B
Tue 03:17:04 AM 49.3420 9.9320 131° Southeast 437 503 29,800 -2,278 Descending FlightAware ADS-B
Tue 03:17:43 AM 49.2940 10.0140 132° Southeast 432 497 28,400 -2,357 Descending FlightAware ADS-B
Tue 03:18:28 AM 49.2300 10.1230 132° Southeast 419 482 26,500 -2,214 Descending FlightAware ADS-B
Tue 03:19:07 AM 49.1800 10.2100 131° Southeast 405 466 25,300 -1,084 Descending FlightAware ADS-B
Tue 03:19:51 AM 49.1310 10.2930 132° Southeast 396 456 25,000 -429 Descending FlightAware ADS-B
Tue 03:20:31 AM 49.0750 10.3820 134° Southeast 406 467 24,700 -1,000 Descending FlightAware ADS-B
Tue 03:21:15 AM 49.0170 10.4750 134° Southeast 396 456 23,600 -1,432 Descending FlightAware ADS-B
Tue 03:21:59 AM 48.9680 10.5530 134° Southeast 386 444 22,600 -1,429 Descending FlightAware ADS-B
Tue 03:22:39 AM 48.9180 10.6340 133° Southeast 382 440 21,600 -1,571 Descending FlightAware ADS-B
Tue 03:23:23 AM 48.8610 10.7260 133° Southeast 379 436 20,400 -1,519 Descending FlightAware ADS-B
Tue 03:23:58 AM 48.8220 10.7870 134° Southeast 371 427 19,600 -960 Descending FlightAware ADS-B
Tue 03:24:38 AM 48.7780 10.8560 134° Southeast 368 423 19,200 -1,952 Descending FlightAware ADS-B
Tue 03:25:21 AM 48.7210 10.9330 138° Southeast 355 409 16,900 -2,330 Descending FlightAware ADS-B
Tue 03:26:21 AM 48.6560 11.0250 137° Southeast 346 398 15,200 -1,824 Descending FlightAware ADS-B
Tue 03:27:03 AM 48.6070 11.0960 136° Southeast 338 389 13,800 -1,906 Descending FlightAware ADS-B
Tue 03:27:46 AM 48.5590 11.1640 137° Southeast 334 384 12,500 -1,829 Descending FlightAware ADS-B
Tue 03:28:25 AM 48.5170 11.2230 137° Southeast 329 379 11,300 -1,059 Descending FlightAware ADS-B
Tue 03:29:11 AM 48.4660 11.2930 138° Southeast 297 342 11,000 -202 Descending FlightAware ADS-B
Tue 03:29:54 AM 48.4350 11.3630 124° Southeast 285 328 11,000  Level FlightAware ADS-B
Tue 03:30:31 AM 48.4380 11.4310 86° East 282 325 11,000 -684 Level FlightAware ADS-B
Tue 03:31:13 AM 48.4460 11.5270 83° East 277 319 10,100 -833 Descending FlightAware ADS-B
Tue 03:31:43 AM 48.4500 11.5860 84° East 282 325 10,000 -500 Descending FlightAware ADS-B
Tue 03:32:13 AM 48.4540 11.6450 84° East 279 321 9,600 -1,091 Descending FlightAware ADS-B
Tue 03:32:38 AM 48.4580 11.6930 83° East 276 318 9,000 -878 Descending FlightAware ADS-B
Tue 03:32:54 AM 48.4610 11.7220 81° East 279 321 9,000  Level FlightAware ADS-B
Tue 03:33:23 AM 48.4660 11.7810 83° East 279 321 9,000  Level FlightAware ADS-B
Tue 03:33:33 AM 48.4680 11.8010 81° East 280 322 9,000  Level FlightAware ADS-B
Tue 03:33:58 AM 48.4710 11.8470 84° East 278 320 9,000 -500 Level FlightAware ADS-B
Tue 03:34:33 AM 48.4750 11.9140 85° East 271 312 8,500 -947 Descending FlightAware ADS-B
Tue 03:35:14 AM 48.4800 11.9870 84° East 259 298 7,800 -857 Descending FlightAware ADS-B
Tue 03:35:43 AM 48.4840 12.0400 83° East 241 277 7,500 -814 Descending FlightAware ADS-B
Tue 03:36:13 AM 48.4880 12.0890 83° East 236 272 7,000 -982 Descending FlightAware ADS-B
Tue 03:36:38 AM 48.4910 12.1310 84° East 235 270 6,600 -1,080 Descending FlightAware ADS-B
Tue 03:37:03 AM 48.4940 12.1720 84° East 234 269 6,100 -1,200 Descending FlightAware ADS-B
Tue 03:37:23 AM 48.4960 12.2040 85° East 235 270 5,700 -1,333 Descending FlightAware ADS-B
Tue 03:37:48 AM 48.4930 12.2450 96° East 246 283 5,100 -1,350 Descending FlightAware ADS-B
Tue 03:38:03 AM 48.4820 12.2610 136° Southeast 249 287 4,800 -1,600 Descending FlightAware ADS-B
Tue 03:38:18 AM 48.4650 12.2700 161° South 239 275 4,300 -1,200 Descending FlightAware ADS-B
Tue 03:38:43 AM 48.4420 12.2570 201° Southwest 234 269 4,000 -750 Descending FlightAware ADS-B
Tue 03:38:58 AM 48.4290 12.2360 227° Southwest 228 262 3,800 -300 Descending FlightAware ADS-B
Tue 03:39:23 AM 48.4120 12.2040 231° Southwest 224 258 3,800  Level FlightAware ADS-B
Tue 03:39:43 AM 48.4080 12.1750 258° West 223 257 3,800  Level FlightAware ADS-B
Tue 03:40:08 AM 48.4050 12.1370 263° West 216 249 3,800  Level FlightAware ADS-B
Tue 03:40:33 AM 48.4030 12.1030 265° West 185 213 3,800  Level FlightAware ADS-B
Tue 03:41:03 AM 48.4000 12.0670 263° West 172 198 3,800  Level FlightAware ADS-B
Tue 03:41:33 AM 48.3970 12.0310 263° West 172 198 3,800 -400 Level FlightAware ADS-B
Tue 03:42:03 AM 48.3940 11.9950 263° West 173 199 3,400 -960 Descending FlightAware ADS-B
Tue 03:42:23 AM 48.3920 11.9700 263° West 176 203 3,000 -982 Descending FlightAware ADS-B
Tue 03:42:58 AM 48.3890 11.9300 264° West 155 178 2,500 -840 Descending FlightAware ADS-B
Tue 03:43:13 AM 48.3880 11.9140 265° West 142 163 2,300 -750 Descending FlightAware ADS-B
Tue 03:43:38 AM 48.3860 11.8910 263° West 137 158 2,000 -764 Descending FlightAware ADS-B
Tue 03:44:08 AM 48.3840 11.8630 264° West 134 154 1,600 -700 Descending FlightAware ADS-B
Tue 03:44:38 AM 48.3820 11.8370 263° West 132 152 1,300 -600 Descending FlightAware ADS-B
Tue 03:44:58 AM 48.3800 11.8200 260° West 92 106 -3,900 Descending FlightAware ADS-B
Tue 03:45:28 AM 48.3790 11.8080 263° West 22 25  Level FlightAware ADS-B
Tue 03:45:43 AM 48.3780 11.8060 233° Southwest 24 28  Level FlightAware ADS-B

Login

Don't have an account? Register now (free) for customized features, flight alerts, and more!